createdAt,value
2019-05-26T00:01:12.307Z,93.51
2019-05-26T00:03:41.355Z,92.78
2019-05-26T00:06:10.534Z,93.35
2019-05-26T00:08:39.576Z,93.13
2019-05-26T00:11:08.760Z,92.94
2019-05-26T00:13:37.783Z,93.01
2019-05-26T00:16:06.904Z,92.11
2019-05-26T00:18:35.952Z,92.61
2019-05-26T00:21:05.051Z,91.23
2019-05-26T00:23:34.111Z,90.71
2019-05-26T00:26:03.162Z,90.70
2019-05-26T00:28:32.203Z,90.81
2019-05-26T00:31:01.269Z,91.33
2019-05-26T00:33:30.347Z,89.97
2019-05-26T00:35:59.383Z,88.99
2019-05-26T00:38:28.491Z,91.82
2019-05-26T00:40:57.596Z,93.07
2019-05-26T00:43:26.663Z,93.37
2019-05-26T00:45:55.720Z,92.51
2019-05-26T00:48:24.851Z,93.16
2019-05-26T00:50:53.961Z,92.56
2019-05-26T00:53:22.961Z,91.90
2019-05-26T00:55:52.027Z,93.19
2019-05-26T00:58:21.008Z,93.74
2019-05-26T01:00:50.062Z,94.71
2019-05-26T01:03:19.133Z,93.76
2019-05-26T01:05:48.157Z,93.76
2019-05-26T01:08:17.244Z,93.79
2019-05-26T01:10:46.290Z,94.90
2019-05-26T01:13:15.375Z,93.11
2019-05-26T01:15:44.401Z,94.54
2019-05-26T01:18:13.442Z,92.74
2019-05-26T01:20:42.465Z,93.78
2019-05-26T01:23:11.534Z,93.64
2019-05-26T01:25:40.576Z,92.47
2019-05-26T01:28:09.657Z,92.56
2019-05-26T01:30:39.035Z,92.08
2019-05-26T01:33:08.171Z,93.57
2019-05-26T01:35:39.514Z,93.92
2019-05-26T01:38:22.442Z,94.82
2019-05-26T01:40:43.802Z,94.96
2019-05-26T01:43:12.865Z,94.84
2019-05-26T01:45:41.900Z,94.69
2019-05-26T01:48:11.177Z,94.17
2019-05-26T01:50:40.275Z,95.85
2019-05-26T01:53:09.316Z,96.25
2019-05-26T01:55:38.385Z,95.77
2019-05-26T01:58:07.427Z,94.59
2019-05-26T02:00:36.426Z,95.87
2019-05-26T02:03:05.548Z,96.01
2019-05-26T02:05:34.592Z,94.74
2019-05-26T02:08:03.615Z,95.33
2019-05-26T02:10:32.677Z,96.38
2019-05-26T02:13:01.712Z,95.49
2019-05-26T02:15:30.845Z,95.55
2019-05-26T02:17:59.926Z,97.44
2019-05-26T02:20:28.998Z,96.79
2019-05-26T02:22:58.078Z,96.81
2019-05-26T02:25:27.092Z,95.73
2019-05-26T02:27:56.148Z,97.11
2019-05-26T02:30:25.244Z,95.26
2019-05-26T02:32:54.377Z,95.55
2019-05-26T02:35:23.479Z,95.50
2019-05-26T02:37:52.508Z,94.78
2019-05-26T02:40:21.672Z,93.86
2019-05-26T02:42:53.269Z,92.47
2019-05-26T02:45:22.264Z,92.09
2019-05-26T02:47:51.322Z,92.86
2019-05-26T02:50:20.391Z,93.77
2019-05-26T02:52:49.435Z,95.34
2019-05-26T02:55:18.503Z,95.12
2019-05-26T02:57:47.558Z,95.52
2019-05-26T03:00:19.775Z,94.37
2019-05-26T03:02:48.850Z,95.72
2019-05-26T03:05:17.919Z,96.01
2019-05-26T03:07:46.964Z,94.71
2019-05-26T03:10:16.042Z,93.90
2019-05-26T03:12:45.075Z,93.28
2019-05-26T03:15:14.220Z,92.37
2019-05-26T03:17:43.474Z,91.86
2019-05-26T03:20:14.428Z,91.08
2019-05-26T03:22:43.526Z,91.80
2019-05-26T03:25:12.624Z,92.96
2019-05-26T03:27:41.666Z,93.20
2019-05-26T03:30:10.890Z,91.69
2019-05-26T03:32:39.962Z,92.82
2019-05-26T03:35:09.654Z,93.94
2019-05-26T03:37:38.797Z,95.06
2019-05-26T03:40:08.439Z,95.44
2019-05-26T03:42:37.464Z,95.45
2019-05-26T03:45:07.138Z,95.55
2019-05-26T03:47:36.147Z,95.27
2019-05-26T03:50:06.114Z,94.79
2019-05-26T03:52:35.246Z,93.44
2019-05-26T03:55:04.503Z,92.53
2019-05-26T03:57:33.503Z,91.85
2019-05-26T04:00:02.608Z,90.30
2019-05-26T04:02:31.738Z,89.90
2019-05-26T04:05:00.763Z,91.60
2019-05-26T04:07:29.802Z,92.74
2019-05-26T04:10:05.434Z,94.29
2019-05-26T04:12:29.606Z,94.53
2019-05-26T04:14:58.688Z,94.97
2019-05-26T04:17:27.901Z,94.99
2019-05-26T04:19:56.932Z,95.44
2019-05-26T04:22:26.039Z,93.48
2019-05-26T04:24:55.051Z,93.51
2019-05-26T04:27:24.089Z,94.89
2019-05-26T04:29:53.114Z,92.90
2019-05-26T04:32:22.222Z,93.11
2019-05-26T04:34:51.299Z,93.33
2019-05-26T04:37:20.411Z,91.62
2019-05-26T04:39:49.494Z,95.47
2019-05-26T04:42:18.547Z,94.54
2019-05-26T04:44:47.616Z,89.95
2019-05-26T04:47:16.727Z,92.71
2019-05-26T04:49:45.775Z,95.00
2019-05-26T04:52:14.866Z,92.97
2019-05-26T04:54:43.904Z,86.05
2019-05-26T04:57:12.934Z,86.06
2019-05-26T04:59:41.993Z,84.44
2019-05-26T05:02:11.057Z,82.32
2019-05-26T05:04:40.141Z,82.50
2019-05-26T05:07:09.210Z,80.33
2019-05-26T05:09:38.213Z,82.72
2019-05-26T05:12:07.255Z,84.75
2019-05-26T05:14:36.291Z,85.96
2019-05-26T05:17:05.343Z,85.86
2019-05-26T05:19:34.482Z,87.71
2019-05-26T05:22:05.401Z,84.04
2019-05-26T05:24:34.458Z,83.35
2019-05-26T05:27:03.510Z,78.91
2019-05-26T05:29:32.554Z,75.58
2019-05-26T05:32:01.648Z,74.49
2019-05-26T05:34:30.715Z,72.85
2019-05-26T05:36:59.732Z,69.87
2019-05-26T05:39:28.831Z,75.88
2019-05-26T05:41:57.834Z,74.14
2019-05-26T05:44:26.926Z,74.54
2019-05-26T05:46:56.028Z,73.59
2019-05-26T05:49:25.009Z,74.10
2019-05-26T05:51:54.026Z,71.32
2019-05-26T05:54:23.233Z,72.38
2019-05-26T05:56:55.482Z,72.74
2019-05-26T05:59:23.050Z,69.88
2019-05-26T06:01:52.072Z,68.34
2019-05-26T06:04:21.181Z,67.12
2019-05-26T06:06:50.238Z,67.14
2019-05-26T06:09:19.356Z,65.57
2019-05-26T06:11:52.291Z,65.89
2019-05-26T06:14:19.138Z,66.59
2019-05-26T06:16:48.294Z,65.54
2019-05-26T06:19:17.504Z,64.08
2019-05-26T06:21:46.531Z,61.88
2019-05-26T06:24:15.579Z,61.20
2019-05-26T06:26:44.636Z,60.97
2019-05-26T06:29:13.717Z,59.19
2019-05-26T06:31:42.812Z,63.50
2019-05-26T06:34:11.966Z,62.26
2019-05-26T06:36:40.966Z,62.76
2019-05-26T06:39:10.070Z,60.17
2019-05-26T06:41:39.078Z,58.00
2019-05-26T06:44:08.161Z,55.84
2019-05-26T06:46:37.185Z,57.02
2019-05-26T06:49:06.286Z,55.71
2019-05-26T06:51:35.302Z,55.67
2019-05-26T06:54:04.477Z,60.52
2019-05-26T06:56:33.566Z,60.72
2019-05-26T06:59:03.120Z,60.33
2019-05-26T07:01:32.203Z,62.30
2019-05-26T07:04:01.246Z,60.89
2019-05-26T07:06:30.348Z,57.28
2019-05-26T07:08:59.486Z,52.33
2019-05-26T07:11:28.551Z,58.35
2019-05-26T07:13:57.694Z,52.07
2019-05-26T07:16:37.699Z,52.07
2019-05-26T07:18:57.650Z,49.39
2019-05-26T07:21:26.676Z,51.85
2019-05-26T07:23:55.839Z,52.57
2019-05-26T07:26:24.932Z,50.42
2019-05-26T07:28:53.947Z,54.41
2019-05-26T07:31:22.949Z,53.14
2019-05-26T07:33:52.066Z,53.71
2019-05-26T07:36:21.133Z,53.05
2019-05-26T07:38:50.158Z,53.28
2019-05-26T07:41:19.373Z,53.05
2019-05-26T07:43:48.412Z,46.61
2019-05-26T07:46:17.555Z,47.86
2019-05-26T07:48:46.653Z,48.44
2019-05-26T07:51:15.831Z,47.30
2019-05-26T07:53:44.936Z,46.07
2019-05-26T07:56:14.056Z,48.67
2019-05-26T07:58:43.124Z,46.96
2019-05-26T08:01:12.228Z,46.81
2019-05-26T08:03:41.369Z,45.33
2019-05-26T08:06:10.505Z,47.99
2019-05-26T08:08:39.595Z,45.59
2019-05-26T08:11:08.714Z,43.59
2019-05-26T08:13:37.902Z,44.46
2019-05-26T08:16:06.982Z,43.36
2019-05-26T08:18:36.024Z,45.32
2019-05-26T08:21:05.109Z,45.22
2019-05-26T08:23:34.208Z,44.74
2019-05-26T08:26:03.290Z,45.64
2019-05-26T08:28:32.379Z,46.57
2019-05-26T08:31:01.578Z,47.09
2019-05-26T08:33:30.601Z,46.91
2019-05-26T08:35:59.654Z,45.96
2019-05-26T08:38:28.813Z,45.27
2019-05-26T08:40:57.935Z,40.65
2019-05-26T08:43:27.271Z,41.82
2019-05-26T08:45:56.373Z,42.08
2019-05-26T08:48:25.469Z,41.44
2019-05-26T08:50:54.581Z,40.10
2019-05-26T08:53:23.649Z,43.10
2019-05-26T08:55:52.866Z,41.53
2019-05-26T08:58:21.945Z,39.37
2019-05-26T09:00:51.181Z,38.94
2019-05-26T09:03:20.353Z,40.05
2019-05-26T09:05:49.592Z,40.49
2019-05-26T09:08:18.772Z,39.81
2019-05-26T09:10:47.976Z,38.54
2019-05-26T09:13:17.084Z,39.47
2019-05-26T09:15:46.296Z,38.91
2019-05-26T09:18:15.388Z,37.42
2019-05-26T09:20:44.564Z,36.81
2019-05-26T09:23:13.630Z,38.72
2019-05-26T09:25:46.254Z,40.88
2019-05-26T09:28:13.546Z,38.42
2019-05-26T09:30:42.653Z,39.86
2019-05-26T09:33:11.707Z,40.25
2019-05-26T09:35:40.843Z,37.07
2019-05-26T09:38:09.992Z,38.31
2019-05-26T09:40:39.034Z,33.58
2019-05-26T09:43:16.033Z,37.32
2019-05-26T09:45:38.855Z,38.19
2019-05-26T09:48:07.966Z,39.97
2019-05-26T09:50:37.010Z,37.00
2019-05-26T09:53:06.259Z,36.96
2019-05-26T09:55:35.360Z,37.06
2019-05-26T09:58:04.505Z,35.42
2019-05-26T10:00:33.542Z,36.32
2019-05-26T10:03:02.693Z,37.35
2019-05-26T10:05:31.774Z,36.69
2019-05-26T10:08:00.888Z,37.46
2019-05-26T10:10:30.016Z,37.19
2019-05-26T10:12:59.068Z,35.92
2019-05-26T10:15:28.142Z,39.48
2019-05-26T10:17:57.352Z,38.04
2019-05-26T10:20:26.459Z,37.05
2019-05-26T10:22:55.663Z,36.39
2019-05-26T10:25:24.729Z,35.95
2019-05-26T10:27:53.863Z,37.22
2019-05-26T10:30:22.979Z,36.95
2019-05-26T10:32:52.101Z,38.51
2019-05-26T10:35:21.146Z,37.71
2019-05-26T10:37:50.332Z,35.76
2019-05-26T10:40:19.448Z,36.76
2019-05-26T10:42:48.584Z,36.23
2019-05-26T10:45:17.676Z,37.32
2019-05-26T10:47:46.841Z,36.89
2019-05-26T10:50:16.983Z,36.22
2019-05-26T10:52:46.140Z,36.82
2019-05-26T10:55:15.228Z,37.03
2019-05-26T10:57:44.440Z,35.46
2019-05-26T11:00:22.552Z,35.39
2019-05-26T11:02:53.210Z,35.21
2019-05-26T11:05:22.273Z,36.38
2019-05-26T11:07:51.415Z,35.23
2019-05-26T11:10:20.494Z,34.77
2019-05-26T11:12:49.820Z,36.71
2019-05-26T11:15:18.996Z,34.13
2019-05-26T11:17:48.160Z,33.56
2019-05-26T11:20:19.027Z,36.18
2019-05-26T11:22:48.152Z,36.28
2019-05-26T11:25:17.397Z,34.86
2019-05-26T11:27:46.538Z,34.68
2019-05-26T11:30:15.730Z,34.17
2019-05-26T11:32:44.755Z,36.33
2019-05-26T11:35:13.835Z,35.47
2019-05-26T11:37:42.853Z,36.87
2019-05-26T11:40:11.906Z,36.54
2019-05-26T11:42:44.430Z,36.44
2019-05-26T11:45:11.686Z,36.11
2019-05-26T11:47:40.679Z,36.88
2019-05-26T11:50:10.415Z,35.70
2019-05-26T11:52:39.397Z,33.92
2019-05-26T11:55:08.480Z,34.46
2019-05-26T11:57:37.839Z,34.38
2019-05-26T12:00:07.011Z,33.73
2019-05-26T12:02:36.092Z,32.92
2019-05-26T12:05:05.452Z,32.62
2019-05-26T12:07:34.506Z,30.98
2019-05-26T12:10:03.627Z,32.95
2019-05-26T12:12:32.692Z,33.42
2019-05-26T12:15:02.119Z,31.19
2019-05-26T12:17:32.008Z,32.49
2019-05-26T12:20:04.872Z,32.26
2019-05-26T12:22:31.831Z,31.72
2019-05-26T12:25:00.874Z,32.13
2019-05-26T12:27:30.050Z,33.38
2019-05-26T12:29:59.081Z,32.58
2019-05-26T12:32:28.145Z,33.37
2019-05-26T12:34:57.182Z,33.25
2019-05-26T12:37:26.195Z,32.99
2019-05-26T12:39:55.254Z,33.18
2019-05-26T12:42:24.273Z,32.04
2019-05-26T12:44:53.324Z,32.87
2019-05-26T12:47:22.338Z,30.11
2019-05-26T12:49:54.530Z,29.26
2019-05-26T12:52:23.545Z,31.79
2019-05-26T12:54:52.631Z,31.25
2019-05-26T12:57:21.675Z,32.00
2019-05-26T12:59:50.730Z,32.23
2019-05-26T13:02:19.794Z,33.17
2019-05-26T13:04:48.829Z,33.65
2019-05-26T13:07:17.905Z,33.85
2019-05-26T13:09:46.939Z,34.56
2019-05-26T13:12:15.986Z,34.37
2019-05-26T13:14:45.075Z,34.29
2019-05-26T13:17:14.130Z,34.68
2019-05-26T13:19:43.182Z,33.67
2019-05-26T13:22:12.315Z,33.48
2019-05-26T13:24:41.513Z,33.02
2019-05-26T13:27:10.668Z,34.16
2019-05-26T13:29:39.794Z,30.84
2019-05-26T13:32:08.984Z,31.64
2019-05-26T13:34:38.074Z,32.25
2019-05-26T13:37:07.224Z,31.81
2019-05-26T13:39:36.247Z,33.27
2019-05-26T13:42:05.314Z,33.89
2019-05-26T13:44:34.346Z,33.23
2019-05-26T13:47:03.381Z,33.60
2019-05-26T13:49:32.462Z,32.60
2019-05-26T13:52:01.547Z,32.27
2019-05-26T13:54:30.620Z,31.83
2019-05-26T13:56:59.750Z,32.22
2019-05-26T13:59:28.776Z,31.28
2019-05-26T14:01:57.848Z,32.41
2019-05-26T14:04:27.100Z,32.59
2019-05-26T14:06:56.340Z,33.17
2019-05-26T14:09:25.424Z,32.48
2019-05-26T14:11:54.580Z,33.14
2019-05-26T14:14:23.596Z,34.17
2019-05-26T14:16:52.849Z,34.45
2019-05-26T14:19:22.563Z,34.70
2019-05-26T14:21:51.793Z,33.90
2019-05-26T14:24:20.904Z,34.95
2019-05-26T14:26:50.117Z,35.79
2019-05-26T14:29:19.214Z,36.25
2019-05-26T14:31:48.258Z,36.41
2019-05-26T14:34:17.329Z,36.39
2019-05-26T14:36:46.394Z,38.27
2019-05-26T14:39:15.468Z,38.88
2019-05-26T14:41:44.606Z,38.88
2019-05-26T14:44:13.792Z,36.94
2019-05-26T14:46:42.973Z,36.94
2019-05-26T14:49:12.085Z,36.97
2019-05-26T14:51:41.248Z,38.19
2019-05-26T14:54:10.445Z,38.70
2019-05-26T14:56:39.625Z,38.70
2019-05-26T14:59:08.711Z,37.13
2019-05-26T15:01:37.836Z,37.42
2019-05-26T15:04:06.916Z,36.90
2019-05-26T15:06:35.994Z,36.69
2019-05-26T15:09:06.937Z,38.21
2019-05-26T15:11:36.105Z,38.21
2019-05-26T15:14:05.174Z,38.15
2019-05-26T15:16:34.302Z,37.84
2019-05-26T15:19:03.381Z,38.90
2019-05-26T15:21:32.415Z,38.18
2019-05-26T15:24:01.565Z,38.31
2019-05-26T15:26:30.683Z,37.28
2019-05-26T15:28:59.789Z,36.42
2019-05-26T15:31:28.896Z,36.04
2019-05-26T15:33:57.992Z,36.68
2019-05-26T15:36:27.085Z,36.95
2019-05-26T15:38:56.171Z,37.64
2019-05-26T15:41:25.206Z,37.64
2019-05-26T15:43:54.452Z,37.28
2019-05-26T15:46:25.510Z,35.96
2019-05-26T15:48:54.347Z,35.90
2019-05-26T15:51:23.425Z,35.90
2019-05-26T15:53:52.591Z,36.17
2019-05-26T15:56:21.706Z,36.77
2019-05-26T15:58:50.847Z,36.35
2019-05-26T16:01:20.039Z,35.69
2019-05-26T16:03:49.121Z,35.88
2019-05-26T16:06:18.172Z,37.96
2019-05-26T16:08:48.174Z,37.96
2019-05-26T16:11:17.253Z,38.23
2019-05-26T16:13:46.370Z,37.79
2019-05-26T16:16:15.497Z,36.95
2019-05-26T16:18:44.620Z,36.71
2019-05-26T16:21:26.981Z,37.05
2019-05-26T16:23:44.367Z,36.97
2019-05-26T16:26:13.488Z,37.32
2019-05-26T16:28:42.665Z,38.77
2019-05-26T16:31:12.383Z,37.87
2019-05-26T16:33:41.545Z,37.87
2019-05-26T16:36:10.674Z,37.94
2019-05-26T16:38:39.735Z,37.29
2019-05-26T16:41:08.837Z,37.21
2019-05-26T16:43:37.902Z,37.55
2019-05-26T16:46:07.035Z,37.90
2019-05-26T16:48:36.093Z,38.59
2019-05-26T16:51:05.264Z,38.27
2019-05-26T16:53:34.296Z,38.38
2019-05-26T16:56:03.357Z,38.53
2019-05-26T16:58:32.592Z,38.53
2019-05-26T17:01:01.672Z,38.80
2019-05-26T17:03:30.759Z,39.38
2019-05-26T17:06:07.785Z,39.31
2019-05-26T17:08:30.712Z,40.51
2019-05-26T17:10:59.786Z,40.41
2019-05-26T17:13:28.865Z,40.33
2019-05-26T17:15:57.990Z,39.82
2019-05-26T17:18:27.177Z,39.90
2019-05-26T17:20:56.274Z,41.04
2019-05-26T17:23:25.312Z,41.29
2019-05-26T17:25:54.410Z,40.71
2019-05-26T17:28:23.467Z,40.91
2019-05-26T17:30:52.602Z,41.11
2019-05-26T17:33:22.012Z,41.14
2019-05-26T17:35:51.080Z,40.98
2019-05-26T17:38:20.150Z,41.17
2019-05-26T17:40:49.211Z,41.78
2019-05-26T17:43:18.335Z,41.43
2019-05-26T17:45:47.493Z,41.73
2019-05-26T17:48:16.581Z,42.81
2019-05-26T17:50:45.654Z,42.51
2019-05-26T17:53:14.825Z,43.81
2019-05-26T17:55:44.003Z,44.20
2019-05-26T17:58:13.142Z,42.74
2019-05-26T18:00:42.294Z,42.69
2019-05-26T18:03:11.381Z,43.70
2019-05-26T18:05:40.525Z,43.52
2019-05-26T18:08:09.556Z,42.94
2019-05-26T18:10:38.685Z,42.61
2019-05-26T18:13:07.732Z,43.40
2019-05-26T18:15:36.838Z,43.10
2019-05-26T18:18:05.954Z,44.29
2019-05-26T18:20:35.088Z,45.74
2019-05-26T18:23:04.165Z,45.14
2019-05-26T18:25:33.259Z,45.62
2019-05-26T18:28:02.283Z,45.84
2019-05-26T18:30:31.350Z,45.63
2019-05-26T18:33:00.506Z,44.78
2019-05-26T18:35:29.577Z,44.53
2019-05-26T18:37:58.657Z,46.05
2019-05-26T18:40:27.724Z,46.24
2019-05-26T18:42:56.901Z,46.43
2019-05-26T18:45:25.947Z,47.55
2019-05-26T18:48:03.111Z,47.80
2019-05-26T18:50:26.231Z,47.84
2019-05-26T18:52:55.441Z,48.61
2019-05-26T18:55:24.821Z,48.92
2019-05-26T18:57:54.011Z,49.45
2019-05-26T19:00:23.059Z,50.20
2019-05-26T19:02:52.156Z,51.13
2019-05-26T19:05:32.827Z,51.98
2019-05-26T19:07:51.972Z,52.92
2019-05-26T19:10:21.006Z,53.30
2019-05-26T19:12:50.183Z,53.84
2019-05-26T19:15:19.230Z,54.87
2019-05-26T19:17:48.431Z,55.81
2019-05-26T19:20:17.725Z,55.87
2019-05-26T19:22:46.783Z,55.93
2019-05-26T19:25:15.815Z,55.83
2019-05-26T19:27:44.933Z,57.98
2019-05-26T19:30:14.105Z,58.23
2019-05-26T19:32:43.283Z,59.07
2019-05-26T19:35:12.383Z,59.84
2019-05-26T19:37:41.536Z,60.82
2019-05-26T19:40:10.679Z,61.43
2019-05-26T19:42:39.855Z,62.15
2019-05-26T19:45:08.972Z,63.31
2019-05-26T19:47:38.040Z,64.32
2019-05-26T19:50:07.185Z,65.91
2019-05-26T19:52:36.313Z,66.91
2019-05-26T19:55:05.654Z,67.68
2019-05-26T19:57:34.740Z,68.06
2019-05-26T20:00:03.763Z,68.67
2019-05-26T20:02:32.842Z,68.62
2019-05-26T20:05:01.897Z,68.68
2019-05-26T20:07:30.909Z,70.26
2019-05-26T20:10:00.040Z,70.07
2019-05-26T20:12:29.139Z,69.78
2019-05-26T20:14:58.211Z,69.75
2019-05-26T20:17:27.234Z,70.45
2019-05-26T20:19:56.393Z,70.73
2019-05-26T20:22:25.381Z,71.00
2019-05-26T20:24:54.486Z,71.18
2019-05-26T20:27:23.549Z,71.84
2019-05-26T20:29:52.705Z,71.84
2019-05-26T20:32:21.905Z,72.32
2019-05-26T20:34:51.007Z,72.43
2019-05-26T20:37:20.106Z,73.35
2019-05-26T20:39:49.171Z,73.59
2019-05-26T20:42:18.242Z,73.91
2019-05-26T20:44:47.344Z,74.15
2019-05-26T20:47:16.395Z,74.57
2019-05-26T20:49:46.139Z,74.82
2019-05-26T20:52:15.181Z,75.32
2019-05-26T20:54:44.278Z,75.59
2019-05-26T20:57:13.312Z,76.44
2019-05-26T20:59:42.428Z,77.18
2019-05-26T21:02:11.656Z,77.27
2019-05-26T21:04:40.765Z,76.89
2019-05-26T21:07:09.744Z,77.21
2019-05-26T21:09:38.773Z,77.44
2019-05-26T21:12:07.821Z,77.21
2019-05-26T21:14:36.910Z,77.40
2019-05-26T21:17:05.976Z,77.60
2019-05-26T21:19:35.103Z,78.30
2019-05-26T21:22:04.125Z,77.75
2019-05-26T21:24:33.174Z,77.63
2019-05-26T21:27:02.278Z,77.69
2019-05-26T21:29:31.362Z,77.81
2019-05-26T21:32:00.361Z,78.85
2019-05-26T21:34:29.375Z,79.25
2019-05-26T21:36:58.447Z,79.67
2019-05-26T21:39:27.576Z,79.84
2019-05-26T21:41:56.621Z,80.14
2019-05-26T21:44:25.669Z,80.66
2019-05-26T21:46:54.921Z,80.62
2019-05-26T21:49:23.979Z,80.89
2019-05-26T21:51:53.125Z,80.74
2019-05-26T21:54:22.267Z,81.68
2019-05-26T21:56:51.433Z,81.55
2019-05-26T21:59:20.555Z,81.86
2019-05-26T22:01:49.696Z,81.82
2019-05-26T22:04:18.739Z,82.05
2019-05-26T22:06:48.830Z,81.85
2019-05-26T22:09:17.847Z,82.01
2019-05-26T22:11:46.985Z,82.43
2019-05-26T22:14:16.026Z,82.98
2019-05-26T22:16:45.117Z,82.75
2019-05-26T22:19:14.220Z,82.93
2019-05-26T22:21:43.340Z,84.23
2019-05-26T22:24:12.382Z,85.59
2019-05-26T22:26:41.466Z,84.75
2019-05-26T22:29:10.550Z,84.04
2019-05-26T22:31:40.092Z,84.43
2019-05-26T22:34:09.163Z,84.53
2019-05-26T22:36:38.228Z,84.84
2019-05-26T22:39:07.498Z,85.65
2019-05-26T22:41:36.544Z,85.96
2019-05-26T22:44:05.824Z,85.71
2019-05-26T22:46:34.954Z,86.18
2019-05-26T22:49:04.729Z,85.85
2019-05-26T22:51:33.790Z,85.61
2019-05-26T22:54:02.840Z,87.80
2019-05-26T22:56:31.952Z,86.53
2019-05-26T22:59:01.032Z,86.54
2019-05-26T23:01:30.142Z,87.04
2019-05-26T23:03:59.127Z,86.79
2019-05-26T23:06:28.199Z,86.89
2019-05-26T23:08:57.249Z,86.47
2019-05-26T23:11:26.313Z,86.88
2019-05-26T23:13:55.300Z,87.36
2019-05-26T23:16:24.359Z,88.20
2019-05-26T23:18:53.442Z,88.30
2019-05-26T23:21:22.540Z,89.92
2019-05-26T23:23:51.717Z,89.96
2019-05-26T23:26:20.698Z,89.99
2019-05-26T23:28:49.728Z,89.66
2019-05-26T23:31:18.811Z,90.48
2019-05-26T23:33:47.841Z,89.46
2019-05-26T23:36:16.904Z,88.36
2019-05-26T23:38:46.033Z,90.21
2019-05-26T23:41:15.076Z,88.51
2019-05-26T23:43:44.154Z,89.39
2019-05-26T23:46:13.199Z,89.04
2019-05-26T23:48:42.256Z,89.51
2019-05-26T23:51:11.337Z,87.53
2019-05-26T23:53:40.364Z,88.96
2019-05-26T23:56:09.368Z,88.76
2019-05-26T23:58:38.374Z,89.68
